sensor_id;sensor_type;location;lat;lon;timestamp;pressure;altitude;pressure_sealevel;temperature;humidity
73024;BME280;61199;47.526;8.538;2023-07-24T00:00:45;95813.31;;;23.41;55.62
73024;BME280;61199;47.526;8.538;2023-07-24T00:03:11;95816.09;;;23.34;56.35
73024;BME280;61199;47.526;8.538;2023-07-24T00:05:38;95819.53;;;23.23;56.75
73024;BME280;61199;47.526;8.538;2023-07-24T00:08:04;95826.97;;;23.21;56.37
73024;BME280;61199;47.526;8.538;2023-07-24T00:10:30;95831.78;;;23.13;56.90
73024;BME280;61199;47.526;8.538;2023-07-24T00:12:57;95825.13;;;23.04;56.90
73024;BME280;61199;47.526;8.538;2023-07-24T00:15:23;95814.22;;;23.05;56.91
73024;BME280;61199;47.526;8.538;2023-07-24T00:17:50;95802.19;;;23.14;56.78
73024;BME280;61199;47.526;8.538;2023-07-24T00:20:16;95811.97;;;23.20;57.00
73024;BME280;61199;47.526;8.538;2023-07-24T00:22:43;95822.22;;;23.23;57.22
73024;BME280;61199;47.526;8.538;2023-07-24T00:25:09;95828.81;;;23.21;56.97
73024;BME280;61199;47.526;8.538;2023-07-24T00:27:35;95852.78;;;23.09;57.35
73024;BME280;61199;47.526;8.538;2023-07-24T00:30:02;95891.72;;;22.69;58.17
73024;BME280;61199;47.526;8.538;2023-07-24T00:32:28;95902.72;;;21.81;63.04
73024;BME280;61199;47.526;8.538;2023-07-24T00:34:55;96041.53;;;21.49;65.08
73024;BME280;61199;47.526;8.538;2023-07-24T00:37:21;95976.88;;;21.22;64.40
73024;BME280;61199;47.526;8.538;2023-07-24T00:39:48;95965.75;;;21.38;65.25
73024;BME280;61199;47.526;8.538;2023-07-24T00:42:14;96000.47;;;21.63;63.84
73024;BME280;61199;47.526;8.538;2023-07-24T00:44:40;95986.78;;;21.90;62.81
73024;BME280;61199;47.526;8.538;2023-07-24T00:47:07;95913.97;;;22.14;63.14
73024;BME280;61199;47.526;8.538;2023-07-24T00:49:34;95954.41;;;22.18;63.81
73024;BME280;61199;47.526;8.538;2023-07-24T00:52:01;95898.66;;;22.28;63.55
73024;BME280;61199;47.526;8.538;2023-07-24T00:54:30;95821.97;;;22.41;63.95
73024;BME280;61199;47.526;8.538;2023-07-24T00:56:58;95793.13;;;22.50;63.23
73024;BME280;61199;47.526;8.538;2023-07-24T00:59:25;95776.50;;;22.48;62.94
73024;BME280;61199;47.526;8.538;2023-07-24T01:01:51;95729.41;;;22.53;62.98
73024;BME280;61199;47.526;8.538;2023-07-24T01:04:18;95792.56;;;22.23;63.47
73024;BME280;61199;47.526;8.538;2023-07-24T01:06:45;95743.78;;;22.16;62.16
73024;BME280;61199;47.526;8.538;2023-07-24T01:09:12;95743.38;;;22.37;61.77
73024;BME280;61199;47.526;8.538;2023-07-24T01:11:44;95765.47;;;22.44;62.17
73024;BME280;61199;47.526;8.538;2023-07-24T01:14:29;95782.94;;;22.22;66.43
73024;BME280;61199;47.526;8.538;2023-07-24T01:17:00;95792.25;;;21.95;66.27
73024;BME280;61199;47.526;8.538;2023-07-24T01:19:45;95798.50;;;21.83;66.14
73024;BME280;61199;47.526;8.538;2023-07-24T01:22:27;95806.56;;;22.01;65.57
73024;BME280;61199;47.526;8.538;2023-07-24T01:25:11;95831.53;;;21.57;68.00
73024;BME280;61199;47.526;8.538;2023-07-24T01:27:45;95835.34;;;21.37;68.88
73024;BME280;61199;47.526;8.538;2023-07-24T01:30:16;95834.41;;;21.56;68.42
73024;BME280;61199;47.526;8.538;2023-07-24T01:32:43;95823.50;;;21.33;68.57
73024;BME280;61199;47.526;8.538;2023-07-24T01:35:10;95818.19;;;21.26;68.65
73024;BME280;61199;47.526;8.538;2023-07-24T01:37:38;95827.63;;;21.53;68.42
73024;BME280;61199;47.526;8.538;2023-07-24T01:40:07;95807.44;;;21.70;68.43
73024;BME280;61199;47.526;8.538;2023-07-24T01:42:34;95802.00;;;21.83;67.57
73024;BME280;61199;47.526;8.538;2023-07-24T01:45:02;95805.00;;;21.93;67.97
73024;BME280;61199;47.526;8.538;2023-07-24T01:47:29;95804.53;;;21.96;68.31
73024;BME280;61199;47.526;8.538;2023-07-24T01:49:56;95817.00;;;22.02;68.34
73024;BME280;61199;47.526;8.538;2023-07-24T01:52:23;95813.13;;;21.98;68.65
73024;BME280;61199;47.526;8.538;2023-07-24T01:54:49;95805.91;;;22.05;68.65
73024;BME280;61199;47.526;8.538;2023-07-24T01:57:16;95799.53;;;22.06;68.11
73024;BME280;61199;47.526;8.538;2023-07-24T01:59:42;95790.09;;;22.04;68.26
73024;BME280;61199;47.526;8.538;2023-07-24T02:02:11;95783.09;;;22.09;68.51
73024;BME280;61199;47.526;8.538;2023-07-24T02:04:37;95784.28;;;22.13;68.70
73024;BME280;61199;47.526;8.538;2023-07-24T02:07:04;95779.97;;;22.12;68.64
73024;BME280;61199;47.526;8.538;2023-07-24T02:09:30;95779.44;;;22.04;68.82
73024;BME280;61199;47.526;8.538;2023-07-24T02:11:57;95770.63;;;22.03;69.10
73024;BME280;61199;47.526;8.538;2023-07-24T02:14:23;95773.09;;;22.05;68.72
73024;BME280;61199;47.526;8.538;2023-07-24T02:16:50;95760.63;;;21.99;68.81
73024;BME280;61199;47.526;8.538;2023-07-24T02:19:17;95757.88;;;22.05;68.45
73024;BME280;61199;47.526;8.538;2023-07-24T02:21:43;95763.94;;;21.94;69.30
73024;BME280;61199;47.526;8.538;2023-07-24T02:24:09;95751.66;;;21.93;69.11
73024;BME280;61199;47.526;8.538;2023-07-24T02:26:36;95764.81;;;21.88;69.74
73024;BME280;61199;47.526;8.538;2023-07-24T02:29:02;95751.34;;;21.83;70.20
73024;BME280;61199;47.526;8.538;2023-07-24T02:31:29;95750.13;;;21.79;69.70
73024;BME280;61199;47.526;8.538;2023-07-24T02:33:55;95752.78;;;21.79;70.04
73024;BME280;61199;47.526;8.538;2023-07-24T02:36:22;95748.78;;;21.70;69.82
73024;BME280;61199;47.526;8.538;2023-07-24T02:38:48;95745.31;;;21.70;69.58
73024;BME280;61199;47.526;8.538;2023-07-24T02:41:15;95735.44;;;21.70;70.10
73024;BME280;61199;47.526;8.538;2023-07-24T02:43:41;95725.22;;;21.67;69.70
73024;BME280;61199;47.526;8.538;2023-07-24T02:46:08;95732.41;;;21.67;70.00
73024;BME280;61199;47.526;8.538;2023-07-24T02:48:34;95749.03;;;21.62;70.32
73024;BME280;61199;47.526;8.538;2023-07-24T02:51:01;95758.19;;;21.48;69.68
73024;BME280;61199;47.526;8.538;2023-07-24T02:53:27;95766.59;;;21.21;70.87
73024;BME280;61199;47.526;8.538;2023-07-24T02:55:53;95775.75;;;21.01;72.07
73024;BME280;61199;47.526;8.538;2023-07-24T02:58:20;95780.72;;;20.84;72.86
73024;BME280;61199;47.526;8.538;2023-07-24T03:00:47;95770.34;;;20.70;73.13
73024;BME280;61199;47.526;8.538;2023-07-24T03:03:14;95770.94;;;20.78;72.99
73024;BME280;61199;47.526;8.538;2023-07-24T03:05:40;95767.00;;;20.81;72.96
73024;BME280;61199;47.526;8.538;2023-07-24T03:08:07;95772.13;;;20.89;72.51
73024;BME280;61199;47.526;8.538;2023-07-24T03:10:33;95759.38;;;20.97;72.53
73024;BME280;61199;47.526;8.538;2023-07-24T03:13:00;95771.19;;;21.08;71.25
73024;BME280;61199;47.526;8.538;2023-07-24T03:15:26;95775.66;;;21.13;71.34
73024;BME280;61199;47.526;8.538;2023-07-24T03:17:52;95771.81;;;21.10;71.49
73024;BME280;61199;47.526;8.538;2023-07-24T03:20:20;95763.56;;;21.11;71.14
73024;BME280;61199;47.526;8.538;2023-07-24T03:22:47;95767.06;;;21.12;70.99
73024;BME280;61199;47.526;8.538;2023-07-24T03:25:13;95767.13;;;21.05;70.42
73024;BME280;61199;47.526;8.538;2023-07-24T03:27:40;95758.34;;;20.98;71.09
73024;BME280;61199;47.526;8.538;2023-07-24T03:30:07;95752.19;;;21.04;70.86
73024;BME280;61199;47.526;8.538;2023-07-24T03:32:33;95744.97;;;21.05;70.97
73024;BME280;61199;47.526;8.538;2023-07-24T03:35:00;95744.19;;;21.04;70.69
73024;BME280;61199;47.526;8.538;2023-07-24T03:37:26;95747.66;;;21.05;70.85
73024;BME280;61199;47.526;8.538;2023-07-24T03:39:53;95742.72;;;21.08;71.11
73024;BME280;61199;47.526;8.538;2023-07-24T03:42:30;95736.84;;;21.00;71.09
73024;BME280;61199;47.526;8.538;2023-07-24T03:44:57;95731.28;;;21.01;70.66
73024;BME280;61199;47.526;8.538;2023-07-24T03:47:24;95727.47;;;20.91;71.38
73024;BME280;61199;47.526;8.538;2023-07-24T03:49:51;95718.44;;;20.92;71.25
73024;BME280;61199;47.526;8.538;2023-07-24T03:52:17;95714.53;;;20.94;71.03
73024;BME280;61199;47.526;8.538;2023-07-24T03:54:44;95712.88;;;21.00;70.97
73024;BME280;61199;47.526;8.538;2023-07-24T03:57:10;95718.41;;;20.98;71.26
73024;BME280;61199;47.526;8.538;2023-07-24T03:59:37;95710.22;;;20.93;71.20
73024;BME280;61199;47.526;8.538;2023-07-24T04:02:03;95712.38;;;20.72;71.86
73024;BME280;61199;47.526;8.538;2023-07-24T04:04:31;95719.66;;;20.52;73.10
73024;BME280;61199;47.526;8.538;2023-07-24T04:06:57;95720.91;;;20.49;72.58
73024;BME280;61199;47.526;8.538;2023-07-24T04:09:24;95729.91;;;20.55;73.04
73024;BME280;61199;47.526;8.538;2023-07-24T04:11:50;95727.25;;;20.48;73.36
73024;BME280;61199;47.526;8.538;2023-07-24T04:14:17;95736.63;;;20.64;72.72
73024;BME280;61199;47.526;8.538;2023-07-24T04:16:43;95735.75;;;20.70;72.62
73024;BME280;61199;47.526;8.538;2023-07-24T04:19:11;95748.41;;;20.74;72.07
73024;BME280;61199;47.526;8.538;2023-07-24T04:21:38;95756.16;;;20.82;71.78
73024;BME280;61199;47.526;8.538;2023-07-24T04:24:04;95765.41;;;20.86;72.20
73024;BME280;61199;47.526;8.538;2023-07-24T04:26:31;95791.97;;;20.93;71.52
73024;BME280;61199;47.526;8.538;2023-07-24T04:28:59;95812.72;;;20.78;72.59
73024;BME280;61199;47.526;8.538;2023-07-24T04:31:25;95832.38;;;20.77;72.65
73024;BME280;61199;47.526;8.538;2023-07-24T04:33:52;95849.00;;;20.66;73.13
73024;BME280;61199;47.526;8.538;2023-07-24T04:36:18;95857.44;;;20.50;74.26
73024;BME280;61199;47.526;8.538;2023-07-24T04:38:45;95859.28;;;20.49;74.49
73024;BME280;61199;47.526;8.538;2023-07-24T04:41:13;95876.66;;;20.58;74.16
73024;BME280;61199;47.526;8.538;2023-07-24T04:43:39;95885.66;;;20.70;73.93
73024;BME280;61199;47.526;8.538;2023-07-24T04:46:06;95995.78;;;19.98;76.81
73024;BME280;61199;47.526;8.538;2023-07-24T04:48:32;96014.72;;;19.56;79.42
73024;BME280;61199;47.526;8.538;2023-07-24T04:50:58;96046.75;;;19.41;80.03
73024;BME280;61199;47.526;8.538;2023-07-24T04:53:25;96089.47;;;19.12;80.83
73024;BME280;61199;47.526;8.538;2023-07-24T04:55:51;96115.28;;;18.97;81.37
73024;BME280;61199;47.526;8.538;2023-07-24T04:58:18;96119.91;;;18.89;82.43
73024;BME280;61199;47.526;8.538;2023-07-24T05:00:44;96107.03;;;18.86;82.93
73024;BME280;61199;47.526;8.538;2023-07-24T05:03:10;96109.69;;;18.86;82.10
73024;BME280;61199;47.526;8.538;2023-07-24T05:05:37;96103.22;;;18.95;81.69
73024;BME280;61199;47.526;8.538;2023-07-24T05:08:08;96117.22;;;19.10;80.93
73024;BME280;61199;47.526;8.538;2023-07-24T05:10:36;96114.56;;;19.10;80.54
73024;BME280;61199;47.526;8.538;2023-07-24T05:13:02;96104.81;;;19.17;79.67
73024;BME280;61199;47.526;8.538;2023-07-24T05:15:29;96107.97;;;19.27;79.49
73024;BME280;61199;47.526;8.538;2023-07-24T05:17:55;96117.84;;;19.39;78.80
73024;BME280;61199;47.526;8.538;2023-07-24T05:20:22;96106.41;;;19.39;79.55
73024;BME280;61199;47.526;8.538;2023-07-24T05:22:49;96089.25;;;19.41;78.36
73024;BME280;61199;47.526;8.538;2023-07-24T05:25:15;96021.41;;;19.45;78.63
73024;BME280;61199;47.526;8.538;2023-07-24T05:27:41;95927.03;;;19.69;78.01
73024;BME280;61199;47.526;8.538;2023-07-24T05:30:11;95945.88;;;19.93;78.74
73024;BME280;61199;47.526;8.538;2023-07-24T05:32:37;95994.13;;;19.84;78.38
73024;BME280;61199;47.526;8.538;2023-07-24T05:35:04;95952.44;;;20.10;77.53
73024;BME280;61199;47.526;8.538;2023-07-24T05:37:31;95939.75;;;20.32;77.15
73024;BME280;61199;47.526;8.538;2023-07-24T05:39:57;95892.25;;;20.42;77.03
73024;BME280;61199;47.526;8.538;2023-07-24T05:42:24;95893.88;;;20.56;77.17
73024;BME280;61199;47.526;8.538;2023-07-24T05:44:50;95884.81;;;20.70;75.86
73024;BME280;61199;47.526;8.538;2023-07-24T05:47:17;95879.91;;;20.73;75.13
73024;BME280;61199;47.526;8.538;2023-07-24T05:49:43;95870.25;;;20.79;74.92
73024;BME280;61199;47.526;8.538;2023-07-24T05:52:09;95845.44;;;20.85;74.35
73024;BME280;61199;47.526;8.538;2023-07-24T05:54:36;95826.00;;;20.91;74.07
73024;BME280;61199;47.526;8.538;2023-07-24T05:57:02;95830.31;;;20.79;74.50
73024;BME280;61199;47.526;8.538;2023-07-24T05:59:29;95805.16;;;20.75;74.81
73024;BME280;61199;47.526;8.538;2023-07-24T06:01:55;95808.84;;;20.74;74.76
73024;BME280;61199;47.526;8.538;2023-07-24T06:04:22;95809.47;;;20.63;75.33
73024;BME280;61199;47.526;8.538;2023-07-24T06:06:48;95816.19;;;20.28;76.90
73024;BME280;61199;47.526;8.538;2023-07-24T06:09:15;95818.47;;;20.05;78.65
73024;BME280;61199;47.526;8.538;2023-07-24T06:11:41;95813.31;;;20.03;78.68
73024;BME280;61199;47.526;8.538;2023-07-24T06:14:07;95814.16;;;20.10;78.89
73024;BME280;61199;47.526;8.538;2023-07-24T06:16:34;95818.22;;;20.26;78.40
73024;BME280;61199;47.526;8.538;2023-07-24T06:19:01;95812.25;;;20.37;78.16
73024;BME280;61199;47.526;8.538;2023-07-24T06:21:27;95801.25;;;20.27;78.39
73024;BME280;61199;47.526;8.538;2023-07-24T06:23:53;95788.09;;;20.45;77.00
73024;BME280;61199;47.526;8.538;2023-07-24T06:26:20;95800.25;;;20.65;76.85
73024;BME280;61199;47.526;8.538;2023-07-24T06:28:46;95802.28;;;20.70;77.14
73024;BME280;61199;47.526;8.538;2023-07-24T06:31:13;95793.84;;;20.86;77.32
73024;BME280;61199;47.526;8.538;2023-07-24T06:33:39;95808.84;;;20.67;76.86
73024;BME280;61199;47.526;8.538;2023-07-24T06:36:09;95822.13;;;20.87;77.10
73024;BME280;61199;47.526;8.538;2023-07-24T06:38:36;95844.88;;;20.70;77.58
73024;BME280;61199;47.526;8.538;2023-07-24T06:41:03;95857.41;;;20.56;78.30
73024;BME280;61199;47.526;8.538;2023-07-24T06:43:29;95873.38;;;20.63;78.77
73024;BME280;61199;47.526;8.538;2023-07-24T06:45:55;95862.72;;;20.69;77.70
73024;BME280;61199;47.526;8.538;2023-07-24T06:48:22;95859.06;;;20.64;77.48
73024;BME280;61199;47.526;8.538;2023-07-24T06:50:48;95844.09;;;20.69;78.43
73024;BME280;61199;47.526;8.538;2023-07-24T06:53:15;95845.28;;;20.73;78.15
73024;BME280;61199;47.526;8.538;2023-07-24T06:55:41;95848.13;;;20.85;78.22
73024;BME280;61199;47.526;8.538;2023-07-24T06:58:08;95843.03;;;20.77;76.60
73024;BME280;61199;47.526;8.538;2023-07-24T07:00:34;95850.34;;;20.94;76.75
73024;BME280;61199;47.526;8.538;2023-07-24T07:03:01;95869.22;;;20.93;76.34
73024;BME280;61199;47.526;8.538;2023-07-24T07:05:27;95876.16;;;20.94;77.17
73024;BME280;61199;47.526;8.538;2023-07-24T07:07:54;95879.06;;;20.86;77.01
73024;BME280;61199;47.526;8.538;2023-07-24T07:10:20;95881.50;;;20.94;77.16
73024;BME280;61199;47.526;8.538;2023-07-24T07:12:47;95897.00;;;21.03;76.67
73024;BME280;61199;47.526;8.538;2023-07-24T07:15:13;95888.66;;;21.00;76.41
73024;BME280;61199;47.526;8.538;2023-07-24T07:17:40;95890.56;;;21.23;76.36
73024;BME280;61199;47.526;8.538;2023-07-24T07:20:06;95892.94;;;21.38;75.95
73024;BME280;61199;47.526;8.538;2023-07-24T07:22:33;95902.47;;;21.58;76.44
73024;BME280;61199;47.526;8.538;2023-07-24T07:25:00;95896.72;;;21.68;76.91
73024;BME280;61199;47.526;8.538;2023-07-24T07:27:26;95887.19;;;21.78;76.23
73024;BME280;61199;47.526;8.538;2023-07-24T07:29:52;95876.72;;;21.77;77.01
73024;BME280;61199;47.526;8.538;2023-07-24T07:32:19;95877.72;;;21.82;77.08
73024;BME280;61199;47.526;8.538;2023-07-24T07:34:45;95865.38;;;21.88;76.19
73024;BME280;61199;47.526;8.538;2023-07-24T07:37:12;95868.56;;;21.96;75.67
73024;BME280;61199;47.526;8.538;2023-07-24T07:39:38;95855.69;;;21.93;75.00
73024;BME280;61199;47.526;8.538;2023-07-24T07:42:04;95852.19;;;21.93;74.65
73024;BME280;61199;47.526;8.538;2023-07-24T07:44:44;95852.28;;;22.04;74.48
73024;BME280;61199;47.526;8.538;2023-07-24T07:47:10;95851.84;;;22.07;73.54
73024;BME280;61199;47.526;8.538;2023-07-24T07:49:36;95852.50;;;22.03;71.58
73024;BME280;61199;47.526;8.538;2023-07-24T07:52:03;95861.47;;;21.84;72.45
73024;BME280;61199;47.526;8.538;2023-07-24T07:54:30;95849.69;;;21.73;74.02
73024;BME280;61199;47.526;8.538;2023-07-24T07:56:57;95851.59;;;21.66;73.07
73024;BME280;61199;47.526;8.538;2023-07-24T07:59:23;95855.28;;;21.65;72.50
73024;BME280;61199;47.526;8.538;2023-07-24T08:01:49;95846.03;;;21.61;73.55
73024;BME280;61199;47.526;8.538;2023-07-24T08:04:16;95843.38;;;21.61;73.39
73024;BME280;61199;47.526;8.538;2023-07-24T08:06:44;95838.78;;;21.75;73.37
73024;BME280;61199;47.526;8.538;2023-07-24T08:09:11;95836.69;;;21.83;72.82
73024;BME280;61199;47.526;8.538;2023-07-24T08:11:37;95828.56;;;21.72;72.25
73024;BME280;61199;47.526;8.538;2023-07-24T08:14:03;95813.81;;;21.69;71.78
73024;BME280;61199;47.526;8.538;2023-07-24T08:16:31;95804.22;;;21.86;72.05
73024;BME280;61199;47.526;8.538;2023-07-24T08:18:58;95805.78;;;21.94;71.77
73024;BME280;61199;47.526;8.538;2023-07-24T08:21:24;95792.41;;;22.00;72.28
73024;BME280;61199;47.526;8.538;2023-07-24T08:23:50;95758.94;;;22.22;72.45
73024;BME280;61199;47.526;8.538;2023-07-24T08:26:17;95753.41;;;22.35;72.26
73024;BME280;61199;47.526;8.538;2023-07-24T08:28:43;95775.25;;;22.50;71.50
73024;BME280;61199;47.526;8.538;2023-07-24T08:31:10;95766.50;;;22.61;70.90
73024;BME280;61199;47.526;8.538;2023-07-24T08:33:37;95748.31;;;22.70;70.65
73024;BME280;61199;47.526;8.538;2023-07-24T08:36:07;95741.63;;;22.79;69.82
73024;BME280;61199;47.526;8.538;2023-07-24T08:38:35;95752.22;;;22.85;69.73
73024;BME280;61199;47.526;8.538;2023-07-24T08:43:29;95744.69;;;22.94;69.32
73024;BME280;61199;47.526;8.538;2023-07-24T08:46:00;95727.53;;;23.01;68.96
73024;BME280;61199;47.526;8.538;2023-07-24T08:48:30;95731.94;;;23.07;67.78
73024;BME280;61199;47.526;8.538;2023-07-24T08:50:57;95739.81;;;23.20;67.77
73024;BME280;61199;47.526;8.538;2023-07-24T08:53:25;95743.31;;;23.32;66.66
73024;BME280;61199;47.526;8.538;2023-07-24T08:55:52;95741.94;;;23.41;65.27
73024;BME280;61199;47.526;8.538;2023-07-24T08:58:18;95738.69;;;23.39;65.01
73024;BME280;61199;47.526;8.538;2023-07-24T09:00:45;95741.25;;;23.46;64.55
73024;BME280;61199;47.526;8.538;2023-07-24T09:03:11;95735.00;;;23.52;65.13
73024;BME280;61199;47.526;8.538;2023-07-24T09:05:38;95726.84;;;23.58;64.38
73024;BME280;61199;47.526;8.538;2023-07-24T09:08:04;95733.59;;;23.61;63.88
73024;BME280;61199;47.526;8.538;2023-07-24T09:10:31;95730.56;;;23.69;63.40
73024;BME280;61199;47.526;8.538;2023-07-24T09:12:57;95717.34;;;23.85;64.25
73024;BME280;61199;47.526;8.538;2023-07-24T09:15:24;95719.19;;;23.96;63.67
73024;BME280;61199;47.526;8.538;2023-07-24T09:17:51;95722.81;;;23.90;61.50
73024;BME280;61199;47.526;8.538;2023-07-24T09:20:20;95733.63;;;23.95;61.65
73024;BME280;61199;47.526;8.538;2023-07-24T09:22:57;95738.28;;;24.00;62.13
73024;BME280;61199;47.526;8.538;2023-07-24T09:25:43;95725.34;;;24.08;61.42
73024;BME280;61199;47.526;8.538;2023-07-24T09:28:14;95708.59;;;24.13;60.85
73024;BME280;61199;47.526;8.538;2023-07-24T09:30:41;95704.25;;;24.23;61.14
73024;BME280;61199;47.526;8.538;2023-07-24T09:33:08;95700.75;;;24.34;60.11
73024;BME280;61199;47.526;8.538;2023-07-24T09:35:34;95686.97;;;24.42;58.68
73024;BME280;61199;47.526;8.538;2023-07-24T09:38:06;95686.03;;;24.48;58.10
73024;BME280;61199;47.526;8.538;2023-07-24T09:43:24;95701.38;;;24.64;57.78
73024;BME280;61199;47.526;8.538;2023-07-24T09:46:06;95708.38;;;24.65;58.43
73024;BME280;61199;47.526;8.538;2023-07-24T09:48:43;95711.13;;;24.70;59.21
73024;BME280;61199;47.526;8.538;2023-07-24T09:51:29;95712.91;;;24.53;57.39
73024;BME280;61199;47.526;8.538;2023-07-24T09:54:12;95720.44;;;24.28;57.63
73024;BME280;61199;47.526;8.538;2023-07-24T09:56:41;95719.31;;;24.01;58.18
73024;BME280;61199;47.526;8.538;2023-07-24T09:59:22;95734.53;;;23.66;60.52
73024;BME280;61199;47.526;8.538;2023-07-24T10:01:49;95746.09;;;23.90;60.26
73024;BME280;61199;47.526;8.538;2023-07-24T10:04:17;95770.03;;;23.85;59.66
73024;BME280;61199;47.526;8.538;2023-07-24T10:06:44;95784.66;;;23.82;60.47
73024;BME280;61199;47.526;8.538;2023-07-24T10:09:11;95786.66;;;23.75;61.10
73024;BME280;61199;47.526;8.538;2023-07-24T10:11:38;95761.06;;;23.79;61.62
73024;BME280;61199;47.526;8.538;2023-07-24T10:14:05;95743.63;;;23.88;60.63
73024;BME280;61199;47.526;8.538;2023-07-24T10:16:32;95755.13;;;24.00;60.67
73024;BME280;61199;47.526;8.538;2023-07-24T10:18:58;95767.38;;;23.96;61.09
73024;BME280;61199;47.526;8.538;2023-07-24T10:21:28;95766.91;;;23.88;61.49
73024;BME280;61199;47.526;8.538;2023-07-24T10:23:59;95738.38;;;24.05;61.71
73024;BME280;61199;47.526;8.538;2023-07-24T10:26:26;95727.66;;;24.16;62.13
73024;BME280;61199;47.526;8.538;2023-07-24T10:28:53;95745.47;;;24.22;61.62
73024;BME280;61199;47.526;8.538;2023-07-24T10:31:24;95733.50;;;24.25;61.49
73024;BME280;61199;47.526;8.538;2023-07-24T10:34:03;95722.53;;;24.26;61.78
73024;BME280;61199;47.526;8.538;2023-07-24T10:36:34;95716.38;;;24.26;62.19
73024;BME280;61199;47.526;8.538;2023-07-24T10:39:01;95703.00;;;24.26;62.87
73024;BME280;61199;47.526;8.538;2023-07-24T10:41:36;95700.06;;;24.27;63.12
73024;BME280;61199;47.526;8.538;2023-07-24T10:44:02;95714.03;;;24.29;63.36
73024;BME280;61199;47.526;8.538;2023-07-24T10:46:40;95762.03;;;24.19;63.59
73024;BME280;61199;47.526;8.538;2023-07-24T10:49:07;95784.84;;;24.10;63.96
73024;BME280;61199;47.526;8.538;2023-07-24T10:51:34;95806.81;;;23.89;64.16
73024;BME280;61199;47.526;8.538;2023-07-24T10:54:04;95787.81;;;23.79;64.84
73024;BME280;61199;47.526;8.538;2023-07-24T10:56:31;95774.75;;;23.71;66.63
73024;BME280;61199;47.526;8.538;2023-07-24T10:59:04;95787.81;;;23.27;70.18
73024;BME280;61199;47.526;8.538;2023-07-24T11:01:32;95846.28;;;22.87;69.21
73024;BME280;61199;47.526;8.538;2023-07-24T11:04:00;95882.34;;;22.42;70.39
73024;BME280;61199;47.526;8.538;2023-07-24T11:06:27;95955.69;;;21.40;73.61
73024;BME280;61199;47.526;8.538;2023-07-24T11:08:56;95992.09;;;20.83;74.04
73024;BME280;61199;47.526;8.538;2023-07-24T11:11:34;95936.06;;;20.39;76.39
73024;BME280;61199;47.526;8.538;2023-07-24T11:14:02;95909.59;;;20.77;76.19
73024;BME280;61199;47.526;8.538;2023-07-24T11:16:29;95879.75;;;21.18;76.61
73024;BME280;61199;47.526;8.538;2023-07-24T11:18:57;95871.94;;;21.54;76.41
73024;BME280;61199;47.526;8.538;2023-07-24T11:21:24;95873.78;;;21.85;74.32
73024;BME280;61199;47.526;8.538;2023-07-24T11:23:55;95875.84;;;22.07;72.87
73024;BME280;61199;47.526;8.538;2023-07-24T11:26:23;95857.03;;;22.02;70.86
73024;BME280;61199;47.526;8.538;2023-07-24T11:28:50;95848.78;;;22.28;70.16
73024;BME280;61199;47.526;8.538;2023-07-24T11:31:17;95828.28;;;22.47;70.31
73024;BME280;61199;47.526;8.538;2023-07-24T11:33:51;95816.13;;;22.69;70.95
73024;BME280;61199;47.526;8.538;2023-07-24T11:36:19;95820.94;;;22.78;71.30
73024;BME280;61199;47.526;8.538;2023-07-24T11:38:46;95819.28;;;22.95;70.62
73024;BME280;61199;47.526;8.538;2023-07-24T11:41:13;95800.00;;;23.05;69.19
73024;BME280;61199;47.526;8.538;2023-07-24T11:43:46;95796.09;;;23.07;69.20
73024;BME280;61199;47.526;8.538;2023-07-24T11:46:25;95774.78;;;23.19;68.42
73024;BME280;61199;47.526;8.538;2023-07-24T11:48:52;95766.09;;;23.23;67.81
73024;BME280;61199;47.526;8.538;2023-07-24T11:51:22;95775.16;;;23.22;68.25
73024;BME280;61199;47.526;8.538;2023-07-24T11:53:50;95784.56;;;23.25;67.60
73024;BME280;61199;47.526;8.538;2023-07-24T11:56:17;95789.81;;;23.31;67.96
73024;BME280;61199;47.526;8.538;2023-07-24T11:58:45;95782.63;;;23.43;68.19
73024;BME280;61199;47.526;8.538;2023-07-24T12:01:14;95768.69;;;23.41;68.35
73024;BME280;61199;47.526;8.538;2023-07-24T12:03:41;95762.28;;;23.42;68.30
73024;BME280;61199;47.526;8.538;2023-07-24T12:06:15;95758.94;;;23.47;67.67
73024;BME280;61199;47.526;8.538;2023-07-24T12:08:43;95734.31;;;23.56;68.05
73024;BME280;61199;47.526;8.538;2023-07-24T12:11:17;95745.69;;;23.63;66.73
73024;BME280;61199;47.526;8.538;2023-07-24T12:13:44;95755.00;;;23.72;66.54
73024;BME280;61199;47.526;8.538;2023-07-24T12:16:11;95766.09;;;23.87;65.96
73024;BME280;61199;47.526;8.538;2023-07-24T12:18:37;95766.31;;;23.97;65.03
73024;BME280;61199;47.526;8.538;2023-07-24T12:21:03;95754.69;;;24.03;65.55
73024;BME280;61199;47.526;8.538;2023-07-24T12:23:30;95751.75;;;24.16;64.58
73024;BME280;61199;47.526;8.538;2023-07-24T12:25:56;95752.47;;;24.23;62.42
73024;BME280;61199;47.526;8.538;2023-07-24T12:28:23;95745.97;;;23.96;63.30
73024;BME280;61199;47.526;8.538;2023-07-24T12:30:49;95733.50;;;24.02;62.95
73024;BME280;61199;47.526;8.538;2023-07-24T12:33:16;95723.56;;;24.25;62.79
73024;BME280;61199;47.526;8.538;2023-07-24T12:35:43;95720.38;;;24.51;62.68
73024;BME280;61199;47.526;8.538;2023-07-24T12:38:10;95708.75;;;24.57;62.27
73024;BME280;61199;47.526;8.538;2023-07-24T12:40:37;95704.63;;;24.27;61.97
73024;BME280;61199;47.526;8.538;2023-07-24T12:43:03;95708.34;;;24.14;63.30
73024;BME280;61199;47.526;8.538;2023-07-24T12:45:29;95707.16;;;24.22;60.66
73024;BME280;61199;47.526;8.538;2023-07-24T12:47:56;95711.59;;;24.16;61.12
73024;BME280;61199;47.526;8.538;2023-07-24T12:50:22;95706.38;;;24.21;59.96
73024;BME280;61199;47.526;8.538;2023-07-24T12:52:49;95693.59;;;24.00;58.78
73024;BME280;61199;47.526;8.538;2023-07-24T12:55:16;95695.13;;;23.85;59.71
73024;BME280;61199;47.526;8.538;2023-07-24T12:57:43;95686.94;;;24.14;58.95
73024;BME280;61199;47.526;8.538;2023-07-24T13:00:10;95675.41;;;24.53;58.42
73024;BME280;61199;47.526;8.538;2023-07-24T13:02:37;95667.50;;;24.86;58.04
73024;BME280;61199;47.526;8.538;2023-07-24T13:05:03;95680.13;;;25.02;55.94
73024;BME280;61199;47.526;8.538;2023-07-24T13:07:30;95684.66;;;25.01;55.96